Terminal Aerodrome Forecast
Issued by NWS

Home | Current Version | Previous Version | Text Only | Print | Product List | Glossary On
Versions: 1 2 3 4 5 6 7 8 9 10 11 12 13 14 15 16 17 18 19 20 21 22 23 24 25 26 27
725
FTUS41 KBTV 241421 AAA
TAFMSS
TAF AMD
KMSS 241421Z 2414/2512 06014G24KT 2SM -SN BR OVC015
      TEMPO 2414/2416 1/2SM -SNPL FZFG OVC008
     FM241600 05014G24KT 3SM -SN BR OVC015
     FM250000 03009KT 3SM -SNPL BR OVC009=

USA.gov is the U.S. government's official web portal to all federal, state and local government web resources and services.